Main page
METAR-TAF:

METAR-TAF

Airports :

Gorgan Airport

Gorgan, Iran

latitude: 36-49N, longitude: 054-28E, elevation: 155 m

Current weather observation

The report was made 51 minutes ago, at 19:00 UTC
Wind 4 kt from the West
Temperature 25°C
Humidity 79%
Pressure 1005 hPa
Visibility 10 km or more
no clouds below 1500 m and no cumulonimbus

METAR: OING 251900Z 27004KT CAVOK 25/21 Q1005

Time: 00:21 (19:51 UTC)

Forecast

The report was made 2 hours and 21 minutes ago, at 17:30 UTC
Forecast valid from 25 at 18 UTC to 26 at 03 UTC
Wind 8 kt from the West
Visibility: 7000 m

TAF: OING 251730Z 2518/2603 27008KT 7000 NSC

Weather observations and forecasts of more than 4000 airports (METAR and TAF reports).

The available stations are represented by yellow and red dots on the map.

Hover mouse over dot to see the name of the station.

Then click to see weather observations and forecasts.

To change the map : click on the green buttons with a black cross to zoom in, on the green button with a dash to zoom out, or on the green arrows for adjacent maps.


METAR-TAF: